createdAt,value
2019-03-28T00:01:50.174Z,12.42
2019-03-28T00:04:23.595Z,12.44
2019-03-28T00:06:57.170Z,12.51
2019-03-28T00:09:30.625Z,12.54
2019-03-28T00:12:04.156Z,12.49
2019-03-28T00:14:37.577Z,12.48
2019-03-28T00:17:11.152Z,12.53
2019-03-28T00:19:44.548Z,12.45
2019-03-28T00:22:19.638Z,12.39
2019-03-28T00:24:54.705Z,12.47
2019-03-28T00:27:28.281Z,12.41
2019-03-28T00:30:01.659Z,12.43
2019-03-28T00:32:35.117Z,12.38
2019-03-28T00:35:09.508Z,12.46
2019-03-28T00:37:42.892Z,12.47
2019-03-28T00:40:16.482Z,12.51
2019-03-28T00:42:49.980Z,12.43
2019-03-28T00:45:24.001Z,12.50
2019-03-28T00:47:57.519Z,12.51
2019-03-28T00:50:33.104Z,12.35
2019-03-28T00:53:06.375Z,12.38
2019-03-28T00:55:39.939Z,12.39
2019-03-28T00:58:13.457Z,12.38
2019-03-28T01:00:46.920Z,12.33
2019-03-28T01:03:20.302Z,12.34
2019-03-28T01:05:54.287Z,12.30
2019-03-28T01:08:27.777Z,12.21
2019-03-28T01:11:01.210Z,12.27
2019-03-28T01:13:34.734Z,12.34
2019-03-28T01:16:08.245Z,12.28
2019-03-28T01:18:41.781Z,12.23
2019-03-28T01:21:15.249Z,12.24
2019-03-28T01:23:48.688Z,12.26
2019-03-28T01:26:22.166Z,12.25
2019-03-28T01:28:55.674Z,12.17
2019-03-28T01:31:29.130Z,12.21
2019-03-28T01:34:02.520Z,12.25
2019-03-28T01:36:36.044Z,12.14
2019-03-28T01:39:10.183Z,12.15
2019-03-28T01:41:43.749Z,12.03
2019-03-28T01:44:17.370Z,12.06
2019-03-28T01:46:51.128Z,12.04
2019-03-28T01:49:24.560Z,12.07
2019-03-28T01:51:58.021Z,12.03
2019-03-28T01:54:31.447Z,12.06
2019-03-28T01:57:10.884Z,12.08
2019-03-28T01:59:40.213Z,12.00
2019-03-28T02:02:13.741Z,12.13
2019-03-28T02:04:47.116Z,12.05
2019-03-28T02:07:20.559Z,12.02
2019-03-28T02:09:54.067Z,12.02
2019-03-28T02:12:27.548Z,12.02
2019-03-28T02:15:01.012Z,11.99
2019-03-28T02:17:34.459Z,12.01
2019-03-28T02:20:08.426Z,12.03
2019-03-28T02:22:41.881Z,12.03
2019-03-28T02:25:15.432Z,12.01
2019-03-28T02:27:48.904Z,12.02
2019-03-28T02:30:30.691Z,12.02
2019-03-28T02:33:04.295Z,12.06
2019-03-28T02:35:37.936Z,12.01
2019-03-28T02:38:11.486Z,12.01
2019-03-28T02:40:44.870Z,12.07
2019-03-28T02:43:18.318Z,12.01
2019-03-28T02:45:51.775Z,12.03
2019-03-28T02:48:25.274Z,12.06
2019-03-28T02:50:58.682Z,12.04
2019-03-28T02:53:32.116Z,12.02
2019-03-28T02:56:05.566Z,12.01
2019-03-28T02:58:38.940Z,11.99
2019-03-28T03:01:12.408Z,12.06
2019-03-28T03:03:45.917Z,12.09
2019-03-28T03:06:19.412Z,12.04
2019-03-28T03:08:52.837Z,12.04
2019-03-28T03:11:26.261Z,12.03
2019-03-28T03:13:59.719Z,12.05
2019-03-28T03:16:33.097Z,12.09
2019-03-28T03:19:06.444Z,12.00
2019-03-28T03:21:39.884Z,12.04
2019-03-28T03:24:13.350Z,12.03
2019-03-28T03:26:46.836Z,12.00
2019-03-28T03:29:20.312Z,11.82
2019-03-28T03:31:54.287Z,11.87
2019-03-28T03:34:27.973Z,11.94
2019-03-28T03:37:01.388Z,11.89
2019-03-28T03:39:34.886Z,11.92
2019-03-28T03:42:08.605Z,11.91
2019-03-28T03:44:42.329Z,11.83
2019-03-28T03:47:15.739Z,11.88
2019-03-28T03:49:49.172Z,11.93
2019-03-28T03:52:22.517Z,11.92
2019-03-28T03:54:56.077Z,11.82
2019-03-28T03:57:29.508Z,11.88
2019-03-28T04:00:03.656Z,11.86
2019-03-28T04:02:37.390Z,11.84
2019-03-28T04:05:10.838Z,11.84
2019-03-28T04:07:44.158Z,11.88
2019-03-28T04:10:17.530Z,11.86
2019-03-28T04:12:50.990Z,11.89
2019-03-28T04:15:24.519Z,11.90
2019-03-28T04:17:57.824Z,11.91
2019-03-28T04:20:31.239Z,11.91
2019-03-28T04:23:04.671Z,11.94
2019-03-28T04:25:38.139Z,11.88
2019-03-28T04:28:12.632Z,11.89
2019-03-28T04:30:46.425Z,11.71
2019-03-28T04:33:19.892Z,11.64
2019-03-28T04:35:53.350Z,11.62
2019-03-28T04:38:26.759Z,11.57
2019-03-28T04:41:00.406Z,11.68
2019-03-28T04:43:33.839Z,11.79
2019-03-28T04:46:07.227Z,11.85
2019-03-28T04:48:40.552Z,11.83
2019-03-28T04:51:13.969Z,11.91
2019-03-28T04:53:47.302Z,11.83
2019-03-28T04:56:20.731Z,11.85
2019-03-28T04:58:54.187Z,11.84
2019-03-28T05:01:27.554Z,11.94
2019-03-28T05:04:01.023Z,11.87
2019-03-28T05:06:34.469Z,11.86
2019-03-28T05:09:07.917Z,11.82
2019-03-28T05:11:41.271Z,11.79
2019-03-28T05:14:14.663Z,11.85
2019-03-28T05:16:48.442Z,11.91
2019-03-28T05:19:22.151Z,11.81
2019-03-28T05:21:56.392Z,11.87
2019-03-28T05:24:29.905Z,11.82
2019-03-28T05:27:03.375Z,11.84
2019-03-28T05:29:36.747Z,11.87
2019-03-28T05:32:10.127Z,11.90
2019-03-28T05:34:43.567Z,11.86
2019-03-28T05:37:16.962Z,11.80
2019-03-28T05:39:50.419Z,11.76
2019-03-28T05:42:23.731Z,11.85
2019-03-28T05:44:57.178Z,11.90
2019-03-28T05:47:30.623Z,11.86
2019-03-28T05:50:05.607Z,11.86
2019-03-28T05:52:39.006Z,11.79
2019-03-28T05:55:12.398Z,11.79
2019-03-28T05:57:45.838Z,11.74
2019-03-28T06:00:19.263Z,11.78
2019-03-28T06:02:52.684Z,11.68
2019-03-28T06:05:26.429Z,11.56
2019-03-28T06:07:59.938Z,11.67
2019-03-28T06:10:33.356Z,11.69
2019-03-28T06:13:06.716Z,11.69
2019-03-28T06:15:41.206Z,11.73
2019-03-28T06:18:14.736Z,11.60
2019-03-28T06:20:48.170Z,11.51
2019-03-28T06:23:22.169Z,11.58
2019-03-28T06:25:55.615Z,11.70
2019-03-28T06:28:29.023Z,11.81
2019-03-28T06:31:02.571Z,11.84
2019-03-28T06:33:38.395Z,11.91
2019-03-28T06:36:11.269Z,11.93
2019-03-28T06:38:44.658Z,12.04
2019-03-28T06:41:18.093Z,12.15
2019-03-28T06:43:51.630Z,12.28
2019-03-28T06:46:25.077Z,12.43
2019-03-28T06:48:58.427Z,12.31
2019-03-28T06:51:31.867Z,12.29
2019-03-28T06:54:06.712Z,12.34
2019-03-28T06:56:40.191Z,12.43
2019-03-28T06:59:13.627Z,12.56
2019-03-28T07:01:47.099Z,12.74
2019-03-28T07:04:20.486Z,12.78
2019-03-28T07:06:53.933Z,12.79
2019-03-28T07:09:27.406Z,12.69
2019-03-28T07:12:00.878Z,12.58
2019-03-28T07:14:34.288Z,12.62
2019-03-28T07:17:07.781Z,12.61
2019-03-28T07:19:41.295Z,12.76
2019-03-28T07:22:14.641Z,12.94
2019-03-28T07:24:48.085Z,13.04
2019-03-28T07:27:21.512Z,12.97
2019-03-28T07:29:54.833Z,12.91
2019-03-28T07:32:28.282Z,13.33
2019-03-28T07:35:01.620Z,13.32
2019-03-28T07:37:34.992Z,13.44
2019-03-28T07:40:08.641Z,13.32
2019-03-28T07:42:42.044Z,13.32
2019-03-28T07:45:15.462Z,13.26
2019-03-28T07:47:49.000Z,13.58
2019-03-28T07:50:22.367Z,13.81
2019-03-28T07:52:55.908Z,13.45
2019-03-28T07:55:29.227Z,13.53
2019-03-28T07:58:02.698Z,13.51
2019-03-28T08:00:36.227Z,13.38
2019-03-28T08:03:09.667Z,13.33
2019-03-28T08:05:43.178Z,13.47
2019-03-28T08:08:16.607Z,13.44
2019-03-28T08:10:49.992Z,13.41
2019-03-28T08:13:23.583Z,13.55
2019-03-28T08:15:56.929Z,13.63
2019-03-28T08:18:30.350Z,13.73
2019-03-28T08:21:03.694Z,13.75
2019-03-28T08:23:37.066Z,13.89
2019-03-28T08:26:10.460Z,13.92
2019-03-28T08:28:43.921Z,14.07
2019-03-28T08:31:17.313Z,14.21
2019-03-28T08:33:50.817Z,14.27
2019-03-28T08:36:24.277Z,14.26
2019-03-28T08:38:57.725Z,14.02
2019-03-28T08:41:31.046Z,14.03
2019-03-28T08:44:07.173Z,14.16
2019-03-28T08:46:39.779Z,14.21
2019-03-28T08:49:13.287Z,14.02
2019-03-28T08:51:46.760Z,13.80
2019-03-28T08:54:20.190Z,13.75
2019-03-28T08:56:53.667Z,13.71
2019-03-28T08:59:27.169Z,13.82
2019-03-28T09:02:00.608Z,13.98
2019-03-28T09:04:34.097Z,13.85
2019-03-28T09:07:07.703Z,13.78
2019-03-28T09:09:41.074Z,13.83
2019-03-28T09:12:14.462Z,13.89
2019-03-28T09:14:47.900Z,13.81
2019-03-28T09:17:23.743Z,13.80
2019-03-28T09:19:56.462Z,13.84
2019-03-28T09:22:29.769Z,13.83
2019-03-28T09:25:03.733Z,13.99
2019-03-28T09:27:37.153Z,14.30
2019-03-28T09:30:12.557Z,14.46
2019-03-28T09:32:46.061Z,14.30
2019-03-28T09:35:25.544Z,14.16
2019-03-28T09:37:59.098Z,14.18
2019-03-28T09:40:32.597Z,14.32
2019-03-28T09:43:06.019Z,14.54
2019-03-28T09:45:39.395Z,14.58
2019-03-28T09:48:12.808Z,14.64
2019-03-28T09:50:46.252Z,14.69
2019-03-28T09:53:19.648Z,14.78
2019-03-28T09:55:53.052Z,14.84
2019-03-28T09:58:26.439Z,14.67
2019-03-28T10:01:03.090Z,14.86
2019-03-28T10:03:35.366Z,15.08
2019-03-28T10:06:08.708Z,15.15
2019-03-28T10:08:42.160Z,15.14
2019-03-28T10:11:15.612Z,15.25
2019-03-28T10:13:48.967Z,15.23
2019-03-28T10:16:22.367Z,15.17
2019-03-28T10:18:55.752Z,15.24
2019-03-28T10:21:29.211Z,15.54
2019-03-28T10:24:02.629Z,15.98
2019-03-28T10:26:35.948Z,16.14
2019-03-28T10:29:09.449Z,16.00
2019-03-28T10:31:42.785Z,15.94
2019-03-28T10:34:16.165Z,16.12
2019-03-28T10:36:49.550Z,16.20
2019-03-28T10:39:22.972Z,16.50
2019-03-28T10:41:56.384Z,16.64
2019-03-28T10:44:29.801Z,16.50
2019-03-28T10:47:04.882Z,16.53
2019-03-28T10:49:38.433Z,16.11
2019-03-28T10:52:12.182Z,16.11
2019-03-28T10:54:45.657Z,15.96
2019-03-28T10:57:29.508Z,15.90
2019-03-28T10:59:54.155Z,15.92
2019-03-28T11:02:28.954Z,15.65
2019-03-28T11:05:02.542Z,15.38
2019-03-28T11:07:35.935Z,15.69
2019-03-28T11:10:09.778Z,15.98
2019-03-28T11:12:43.212Z,16.10
2019-03-28T11:15:16.641Z,16.11
2019-03-28T11:17:49.965Z,16.13
2019-03-28T11:20:23.356Z,15.95
2019-03-28T11:22:56.678Z,16.01
2019-03-28T11:25:30.152Z,15.75
2019-03-28T11:28:03.565Z,15.97
2019-03-28T11:30:36.994Z,15.98
2019-03-28T11:33:10.380Z,15.98
2019-03-28T11:35:43.825Z,16.15
2019-03-28T11:38:17.242Z,16.31
2019-03-28T11:40:50.642Z,16.43
2019-03-28T11:43:24.086Z,16.11
2019-03-28T11:45:57.549Z,15.91
2019-03-28T11:48:30.867Z,15.70
2019-03-28T11:51:04.285Z,15.82
2019-03-28T11:53:37.712Z,15.83
2019-03-28T11:56:11.119Z,16.17
2019-03-28T11:58:44.506Z,16.46
2019-03-28T12:01:17.970Z,16.44
2019-03-28T12:03:51.549Z,16.48
2019-03-28T12:06:24.894Z,16.75
2019-03-28T12:08:58.369Z,16.26
2019-03-28T12:11:31.792Z,16.27
2019-03-28T12:14:05.145Z,16.47
2019-03-28T12:16:38.561Z,16.45
2019-03-28T12:19:11.946Z,16.46
2019-03-28T12:21:45.381Z,16.42
2019-03-28T12:24:18.713Z,16.48
2019-03-28T12:26:52.110Z,16.36
2019-03-28T12:29:25.504Z,16.59
2019-03-28T12:31:58.824Z,16.73
2019-03-28T12:34:32.177Z,16.73
2019-03-28T12:37:05.591Z,16.49
2019-03-28T12:39:39.029Z,16.46
2019-03-28T12:42:12.461Z,16.29
2019-03-28T12:44:56.506Z,16.12
2019-03-28T12:47:21.044Z,15.96
2019-03-28T12:49:54.472Z,16.03
2019-03-28T12:52:29.825Z,16.04
2019-03-28T12:55:03.694Z,15.98
2019-03-28T12:57:37.019Z,16.11
2019-03-28T13:00:11.905Z,16.10
2019-03-28T13:02:45.222Z,16.31
2019-03-28T13:05:18.684Z,16.32
2019-03-28T13:07:52.077Z,16.04
2019-03-28T13:10:25.523Z,16.12
2019-03-28T13:12:58.912Z,16.01
2019-03-28T13:15:32.297Z,15.89
2019-03-28T13:18:05.689Z,15.82
2019-03-28T13:20:39.035Z,16.01
2019-03-28T13:23:12.419Z,16.08
2019-03-28T13:25:45.729Z,15.92
2019-03-28T13:28:19.151Z,15.99
2019-03-28T13:30:52.594Z,15.74
2019-03-28T13:33:25.921Z,15.65
2019-03-28T13:35:59.362Z,15.82
2019-03-28T13:38:32.756Z,15.70
2019-03-28T13:41:06.184Z,15.50
2019-03-28T13:43:39.558Z,15.49
2019-03-28T13:46:12.997Z,15.46
2019-03-28T13:48:46.595Z,15.56
2019-03-28T13:51:20.097Z,15.56
2019-03-28T13:53:53.905Z,15.57
2019-03-28T13:56:27.456Z,15.62
2019-03-28T13:59:00.779Z,15.56
2019-03-28T14:01:34.143Z,15.68
2019-03-28T14:04:07.485Z,15.67
2019-03-28T14:06:40.873Z,15.71
2019-03-28T14:09:14.311Z,15.63
2019-03-28T14:11:47.787Z,15.46
2019-03-28T14:14:21.117Z,15.50
2019-03-28T14:16:54.594Z,15.26
2019-03-28T14:19:27.984Z,15.36
2019-03-28T14:22:01.355Z,15.42
2019-03-28T14:24:34.708Z,15.53
2019-03-28T14:27:08.053Z,15.43
2019-03-28T14:29:42.625Z,15.50
2019-03-28T14:32:16.102Z,15.81
2019-03-28T14:34:49.622Z,16.04
2019-03-28T14:37:23.048Z,16.24
2019-03-28T14:39:56.502Z,16.29
2019-03-28T14:42:29.891Z,16.44
2019-03-28T14:45:03.608Z,16.58
2019-03-28T14:47:37.114Z,16.70
2019-03-28T14:50:10.903Z,16.66
2019-03-28T14:52:44.346Z,16.66
2019-03-28T14:55:17.756Z,16.39
2019-03-28T14:57:51.151Z,16.26
2019-03-28T15:00:42.283Z,16.35
2019-03-28T15:03:25.722Z,16.44
2019-03-28T15:05:51.170Z,16.53
2019-03-28T15:08:24.549Z,16.34
2019-03-28T15:10:57.996Z,16.35
2019-03-28T15:13:31.344Z,16.28
2019-03-28T15:16:04.791Z,16.31
2019-03-28T15:18:38.191Z,16.09
2019-03-28T15:21:11.620Z,16.03
2019-03-28T15:23:45.182Z,16.09
2019-03-28T15:26:18.579Z,16.06
2019-03-28T15:28:52.042Z,15.95
2019-03-28T15:31:25.370Z,16.03
2019-03-28T15:33:58.915Z,16.09
2019-03-28T15:36:32.307Z,16.10
2019-03-28T15:39:07.663Z,15.95
2019-03-28T15:41:40.985Z,15.90
2019-03-28T15:44:14.463Z,15.73
2019-03-28T15:46:47.795Z,15.74
2019-03-28T15:49:21.304Z,15.58
2019-03-28T15:51:54.699Z,15.43
2019-03-28T15:54:28.196Z,15.33
2019-03-28T15:57:01.531Z,15.21
2019-03-28T15:59:35.286Z,15.18
2019-03-28T16:02:08.606Z,15.26
2019-03-28T16:04:42.050Z,15.30
2019-03-28T16:07:15.420Z,15.32
2019-03-28T16:09:48.884Z,15.37
2019-03-28T16:12:22.325Z,15.37
2019-03-28T16:14:56.016Z,15.36
2019-03-28T16:17:29.532Z,15.40
2019-03-28T16:20:03.050Z,15.46
2019-03-28T16:22:36.364Z,15.53
2019-03-28T16:25:09.807Z,15.59
2019-03-28T16:27:43.190Z,15.66
2019-03-28T16:30:18.664Z,15.68
2019-03-28T16:32:51.978Z,15.61
2019-03-28T16:35:25.333Z,15.57
2019-03-28T16:37:58.678Z,15.64
2019-03-28T16:40:32.110Z,15.65
2019-03-28T16:43:05.687Z,15.66
2019-03-28T16:45:39.107Z,15.70
2019-03-28T16:48:12.611Z,15.71
2019-03-28T16:50:46.120Z,15.68
2019-03-28T16:53:19.508Z,15.68
2019-03-28T16:55:52.887Z,15.67
2019-03-28T16:58:26.297Z,15.64
2019-03-28T17:00:59.737Z,15.63
2019-03-28T17:03:33.143Z,15.55
2019-03-28T17:06:07.695Z,15.48
2019-03-28T17:08:41.917Z,15.50
2019-03-28T17:11:15.482Z,15.43
2019-03-28T17:13:48.865Z,15.44
2019-03-28T17:16:22.400Z,15.42
2019-03-28T17:18:56.344Z,15.42
2019-03-28T17:21:30.380Z,15.40
2019-03-28T17:24:03.836Z,15.41
2019-03-28T17:26:37.295Z,15.40
2019-03-28T17:29:10.743Z,15.39
2019-03-28T17:31:44.957Z,15.36
2019-03-28T17:34:18.587Z,15.33
2019-03-28T17:36:51.979Z,15.18
2019-03-28T17:39:25.439Z,15.18
2019-03-28T17:41:58.946Z,15.21
2019-03-28T17:44:34.000Z,15.20
2019-03-28T17:47:07.444Z,15.18
2019-03-28T17:49:40.760Z,15.19
2019-03-28T17:52:14.178Z,15.18
2019-03-28T17:54:47.509Z,15.16
2019-03-28T17:57:20.984Z,15.13
2019-03-28T17:59:54.356Z,15.11
2019-03-28T18:02:28.165Z,15.10
2019-03-28T18:05:09.287Z,15.09
2019-03-28T18:07:36.740Z,15.06
2019-03-28T18:10:10.361Z,15.06
2019-03-28T18:12:43.798Z,15.07
2019-03-28T18:15:17.222Z,15.07
2019-03-28T18:17:51.032Z,15.05
2019-03-28T18:20:25.381Z,15.02
2019-03-28T18:22:58.861Z,15.00
2019-03-28T18:25:32.191Z,14.97
2019-03-28T18:28:05.638Z,14.96
2019-03-28T18:30:39.097Z,14.94
2019-03-28T18:33:12.674Z,14.96
2019-03-28T18:35:46.167Z,14.92
2019-03-28T18:38:19.709Z,14.83
2019-03-28T18:40:53.086Z,14.85
2019-03-28T18:43:26.435Z,14.87
2019-03-28T18:45:59.941Z,14.87
2019-03-28T18:48:36.412Z,14.87
2019-03-28T18:51:08.882Z,14.86
2019-03-28T18:53:42.272Z,14.87
2019-03-28T18:56:15.636Z,14.85
2019-03-28T18:58:49.034Z,14.86
2019-03-28T19:01:22.456Z,14.84
2019-03-28T19:03:55.857Z,14.83
2019-03-28T19:06:29.305Z,14.79
2019-03-28T19:09:02.747Z,14.77
2019-03-28T19:11:36.113Z,14.77
2019-03-28T19:14:09.463Z,14.77
2019-03-28T19:16:42.959Z,14.76
2019-03-28T19:19:16.354Z,14.77
2019-03-28T19:21:49.739Z,14.77
2019-03-28T19:24:23.190Z,14.79
2019-03-28T19:26:56.653Z,14.77
2019-03-28T19:29:30.126Z,14.77
2019-03-28T19:32:03.494Z,14.78
2019-03-28T19:34:36.909Z,14.76
2019-03-28T19:37:10.358Z,14.74
2019-03-28T19:39:43.777Z,14.75
2019-03-28T19:42:17.986Z,14.73
2019-03-28T19:44:52.224Z,14.72
2019-03-28T19:47:28.370Z,14.73
2019-03-28T19:50:00.730Z,14.73
2019-03-28T19:52:34.190Z,14.72
2019-03-28T19:55:08.022Z,14.66
2019-03-28T19:57:41.379Z,14.68
2019-03-28T20:00:14.858Z,14.70
2019-03-28T20:02:48.289Z,14.70
2019-03-28T20:05:21.629Z,14.69
2019-03-28T20:07:55.077Z,14.67
2019-03-28T20:10:28.454Z,14.66
2019-03-28T20:13:05.399Z,14.66
2019-03-28T20:15:39.022Z,14.67
2019-03-28T20:18:12.654Z,14.63
2019-03-28T20:20:46.304Z,14.65
2019-03-28T20:23:20.599Z,14.65
2019-03-28T20:25:53.922Z,14.67
2019-03-28T20:28:27.389Z,14.69
2019-03-28T20:31:00.773Z,14.70
2019-03-28T20:33:34.226Z,14.70
2019-03-28T20:36:35.504Z,14.70
2019-03-28T20:38:44.679Z,14.71
2019-03-28T20:41:17.985Z,14.70
2019-03-28T20:43:51.411Z,14.70
2019-03-28T20:46:24.750Z,14.69
2019-03-28T20:48:58.183Z,14.69
2019-03-28T20:51:31.505Z,14.69
2019-03-28T20:54:07.807Z,14.70
2019-03-28T20:56:40.108Z,14.70
2019-03-28T20:59:13.447Z,14.68
2019-03-28T21:01:46.848Z,14.60
2019-03-28T21:04:30.573Z,14.54
2019-03-28T21:06:55.499Z,14.55
2019-03-28T21:09:28.830Z,14.55
2019-03-28T21:12:02.293Z,14.56
2019-03-28T21:14:35.639Z,14.57
2019-03-28T21:17:09.067Z,14.58
2019-03-28T21:19:42.554Z,14.58
2019-03-28T21:22:15.974Z,14.56
2019-03-28T21:24:49.375Z,14.55
2019-03-28T21:27:22.750Z,14.55
2019-03-28T21:29:56.142Z,14.55
2019-03-28T21:32:29.615Z,14.53
2019-03-28T21:35:03.060Z,14.47
2019-03-28T21:37:36.419Z,14.50
2019-03-28T21:40:09.883Z,14.50
2019-03-28T21:42:43.290Z,14.46
2019-03-28T21:45:17.051Z,14.44
2019-03-28T21:47:50.943Z,14.47
2019-03-28T21:50:24.552Z,14.47
2019-03-28T21:52:57.995Z,14.47
2019-03-28T21:55:31.412Z,14.48
2019-03-28T21:58:05.235Z,14.43
2019-03-28T22:00:38.704Z,14.41
2019-03-28T22:03:12.154Z,14.46
2019-03-28T22:05:45.617Z,14.47
2019-03-28T22:08:18.973Z,14.50
2019-03-28T22:10:52.374Z,14.48
2019-03-28T22:13:25.842Z,14.49
2019-03-28T22:15:59.167Z,14.43
2019-03-28T22:18:33.811Z,14.41
2019-03-28T22:21:07.399Z,14.38
2019-03-28T22:23:40.864Z,14.33
2019-03-28T22:26:14.265Z,14.27
2019-03-28T22:28:47.790Z,14.30
2019-03-28T22:31:21.179Z,14.37
2019-03-28T22:33:54.537Z,14.32
2019-03-28T22:36:28.003Z,14.38
2019-03-28T22:39:01.395Z,14.39
2019-03-28T22:41:34.725Z,14.43
2019-03-28T22:44:08.178Z,14.46
2019-03-28T22:46:41.613Z,14.41
2019-03-28T22:49:14.983Z,14.31
2019-03-28T22:51:48.383Z,14.37
2019-03-28T22:54:21.764Z,14.40
2019-03-28T22:56:55.176Z,14.42
2019-03-28T22:59:28.639Z,14.46
2019-03-28T23:02:02.225Z,14.48
2019-03-28T23:04:36.330Z,14.48
2019-03-28T23:07:11.248Z,14.47
2019-03-28T23:09:44.900Z,14.45
2019-03-28T23:12:18.335Z,14.45
2019-03-28T23:14:51.676Z,14.43
2019-03-28T23:17:25.058Z,14.44
2019-03-28T23:19:58.471Z,14.43
2019-03-28T23:22:31.888Z,14.44
2019-03-28T23:25:06.098Z,14.41
2019-03-28T23:27:39.683Z,14.42
2019-03-28T23:30:13.317Z,14.42
2019-03-28T23:32:46.768Z,14.41
2019-03-28T23:35:20.185Z,14.39
2019-03-28T23:37:53.830Z,14.34
2019-03-28T23:40:27.247Z,14.31
2019-03-28T23:43:00.691Z,14.31
2019-03-28T23:45:34.040Z,14.31
2019-03-28T23:48:07.476Z,14.34
2019-03-28T23:50:40.894Z,14.35
2019-03-28T23:53:14.330Z,14.33
2019-03-28T23:55:47.701Z,14.32
2019-03-28T23:58:21.298Z,14.31
